Time;durP1;ratioP1;P1;durP2;ratioP2;P2;SDS_P1;SDS_P2;PMS_P1;PMS_P2;Temp;Humidity;BMP_temperature;BMP_pressure;BME280_temperature;BME280_humidity;BME280_pressure;Samples;Min_cycle;Max_cycle;Signal;HPM_P1;HPM_P2
2022/08/03 00:01:00;;;;;;;1.45;1.35;;;28.60;38.20;;;;;;5089365;28;45400;-69
2022/08/03 00:03:26;;;;;;;1.45;1.35;;;28.60;38.50;;;;;;5088582;28;45492;-69
2022/08/03 00:05:53;;;;;;;1.50;1.40;;;28.60;38.40;;;;;;5088962;28;45299;-70
2022/08/03 00:08:20;;;;;;;1.40;1.30;;;28.60;38.40;;;;;;5088399;28;45194;-69
2022/08/03 00:10:47;;;;;;;1.50;1.40;;;28.60;38.50;;;;;;5089133;28;45428;-70
2022/08/03 00:13:15;;;;;;;1.42;1.25;;;28.50;38.30;;;;;;5079585;28;45390;-69
2022/08/03 00:15:43;;;;;;;1.42;1.33;;;28.50;38.30;;;;;;5089066;28;46127;-69
2022/08/03 00:18:10;;;;;;;1.20;1.10;;;28.50;38.60;;;;;;5088054;28;45219;-69
2022/08/03 00:20:37;;;;;;;1.30;1.20;;;28.50;38.30;;;;;;5088766;28;45546;-70
2022/08/03 00:23:06;;;;;;;1.27;1.15;;;28.40;38.30;;;;;;5088769;28;45246;-69
2022/08/03 00:25:34;;;;;;;1.55;1.45;;;28.50;38.50;;;;;;5088496;28;45413;-70
2022/08/03 00:28:01;;;;;;;2.63;1.38;;;28.40;38.40;;;;;;5088296;28;45196;-69
2022/08/03 00:30:29;;;;;;;1.35;1.25;;;28.40;38.40;;;;;;5037965;28;45255;-69
2022/08/03 00:32:57;;;;;;;2.03;1.30;;;28.40;38.40;;;;;;5048153;28;46284;-69
2022/08/03 00:35:24;;;;;;;2.25;1.35;;;28.40;38.50;;;;;;5047633;28;45240;-69
2022/08/03 00:37:51;;;;;;;1.52;1.42;;;28.30;38.40;;;;;;5047634;28;45180;-70
2022/08/03 00:40:19;;;;;;;1.33;1.23;;;28.30;38.60;;;;;;5063549;28;45131;-69
2022/08/03 00:42:50;;;;;;;1.27;1.17;;;28.30;38.30;;;;;;5049680;28;45490;-70
2022/08/03 00:45:17;;;;;;;2.33;1.25;;;28.30;38.40;;;;;;5067797;28;45186;-69
2022/08/03 00:47:44;;;;;;;1.05;1.05;;;28.30;38.40;;;;;;5067875;28;45262;-69
2022/08/03 00:50:13;;;;;;;1.45;1.35;;;28.20;38.40;;;;;;5067988;28;45515;-69
2022/08/03 00:52:39;;;;;;;2.25;1.50;;;28.20;38.60;;;;;;5065115;28;46167;-70
2022/08/03 00:55:08;;;;;;;1.58;1.00;;;28.20;38.70;;;;;;5067318;28;45178;-69
2022/08/03 00:57:34;;;;;;;1.10;1.10;;;28.20;38.40;;;;;;5030961;28;45168;-70
2022/08/03 01:00:01;;;;;;;1.05;1.05;;;28.10;38.60;;;;;;5068064;28;45217;-69
2022/08/03 01:02:28;;;;;;;1.20;1.10;;;28.10;38.60;;;;;;5067431;28;45308;-70
2022/08/03 01:04:55;;;;;;;1.40;1.30;;;28.10;38.60;;;;;;5067704;28;45277;-69
2022/08/03 01:07:33;;;;;;;1.83;1.20;;;28.10;38.70;;;;;;5067219;28;45207;-70
2022/08/03 01:10:01;;;;;;;1.33;1.23;;;28.10;38.60;;;;;;5049633;28;45377;-70
2022/08/03 01:12:32;;;;;;;1.33;1.13;;;28.00;38.60;;;;;;5073992;28;45470;-69
2022/08/03 01:15:02;;;;;;;1.20;1.10;;;28.00;38.70;;;;;;5067392;28;45258;-69
2022/08/03 01:17:36;;;;;;;1.33;1.23;;;28.00;38.60;;;;;;5067479;28;45337;-69
2022/08/03 01:20:05;;;;;;;1.50;1.02;;;28.00;38.60;;;;;;5067209;28;45562;-69
2022/08/03 01:22:46;;;;;;;1.10;1.00;;;28.00;38.70;;;;;;5067015;28;45530;-70
2022/08/03 01:25:18;;;;;;;1.67;1.15;;;27.90;38.60;;;;;;5066842;28;45288;-69
2022/08/03 01:27:57;;;;;;;1.40;1.30;;;27.90;38.60;;;;;;5049780;28;45262;-69
2022/08/03 01:30:26;;;;;;;1.08;0.98;;;27.90;38.70;;;;;;5067496;28;45308;-69
2022/08/03 01:32:56;;;;;;;1.60;1.08;;;27.90;38.60;;;;;;5087284;28;45208;-69
2022/08/03 01:35:26;;;;;;;1.17;1.15;;;27.80;38.60;;;;;;5087301;28;45363;-70
2022/08/03 01:37:58;;;;;;;1.10;1.00;;;27.80;38.60;;;;;;5087404;28;45242;-69
2022/08/03 01:40:25;;;;;;;0.90;0.90;;;27.80;38.70;;;;;;5087527;28;45284;-69
2022/08/03 01:42:54;;;;;;;1.15;1.00;;;27.80;38.80;;;;;;5087081;28;45299;-69
2022/08/03 01:45:21;;;;;;;1.83;1.10;;;27.80;38.70;;;;;;5087088;28;45268;-70
2022/08/03 01:47:49;;;;;;;1.50;1.17;;;27.70;39.30;;;;;;5087312;28;45309;-69
2022/08/03 01:50:17;;;;;;;1.30;1.20;;;27.70;38.80;;;;;;5087740;28;45189;-69
2022/08/03 01:52:44;;;;;;;1.00;0.90;;;27.70;38.80;;;;;;5086924;28;45537;-69
2022/08/03 01:55:14;;;;;;;1.13;1.10;;;27.70;39.50;;;;;;5086927;28;45346;-70
2022/08/03 01:57:41;;;;;;;1.10;1.10;;;27.70;38.90;;;;;;5069308;28;45316;-69
2022/08/03 02:00:09;;;;;;;1.00;1.00;;;27.70;38.80;;;;;;5087228;28;45400;-70
2022/08/03 02:02:37;;;;;;;1.02;1.00;;;27.60;38.90;;;;;;5086617;28;46968;-69
2022/08/03 02:05:07;;;;;;;1.10;1.10;;;27.60;38.80;;;;;;5068681;28;45316;-69
2022/08/03 02:07:34;;;;;;;0.98;0.90;;;27.60;38.90;;;;;;5086302;28;45200;-69
2022/08/03 02:10:01;;;;;;;2.38;1.10;;;27.60;38.90;;;;;;5087328;28;45406;-69
2022/08/03 02:12:29;;;;;;;1.30;1.20;;;27.60;38.90;;;;;;5079832;28;46393;-69
2022/08/03 02:14:56;;;;;;;0.85;0.85;;;27.50;39.00;;;;;;5086401;28;46020;-69
2022/08/03 02:17:23;;;;;;;1.20;1.10;;;27.50;38.90;;;;;;5051813;28;45226;-69
2022/08/03 02:19:50;;;;;;;1.52;1.00;;;27.50;39.00;;;;;;5086476;28;45206;-69
2022/08/03 02:22:19;;;;;;;1.25;1.25;;;27.50;38.90;;;;;;5086565;28;48739;-70
2022/08/03 02:24:46;;;;;;;1.40;1.30;;;27.50;39.10;;;;;;5086504;28;45368;-70
2022/08/03 02:27:17;;;;;;;0.82;0.82;;;27.50;39.00;;;;;;5087206;28;45281;-70
2022/08/03 02:29:45;;;;;;;1.20;1.10;;;27.40;38.90;;;;;;5056481;28;45407;-70
2022/08/03 02:32:14;;;;;;;1.17;1.17;;;27.40;39.00;;;;;;5031534;28;46970;-70
2022/08/03 02:34:42;;;;;;;1.05;1.05;;;27.40;39.10;;;;;;5066306;28;45383;-70
2022/08/03 02:37:09;;;;;;;1.40;1.30;;;27.40;39.00;;;;;;5048154;28;45366;-69
2022/08/03 02:39:37;;;;;;;1.00;1.00;;;27.40;39.00;;;;;;5064538;28;45305;-69
2022/08/03 02:42:04;;;;;;;0.80;0.80;;;27.40;39.10;;;;;;5048157;28;45494;-69
2022/08/03 02:44:32;;;;;;;1.27;1.02;;;27.40;39.00;;;;;;5066118;28;45955;-70
2022/08/03 02:47:02;;;;;;;1.10;1.10;;;27.40;39.10;;;;;;5066259;28;45285;-69
2022/08/03 02:49:28;;;;;;;0.90;0.90;;;27.40;39.30;;;;;;5066491;28;45229;-69
2022/08/03 02:51:55;;;;;;;1.10;1.00;;;27.40;39.20;;;;;;5066035;28;47719;-69
2022/08/03 02:54:22;;;;;;;1.20;1.10;;;27.30;39.10;;;;;;5066140;28;45401;-69
2022/08/03 02:56:51;;;;;;;1.02;1.00;;;27.30;39.20;;;;;;5066063;28;45308;-69
2022/08/03 02:59:18;;;;;;;1.85;1.17;;;27.30;39.20;;;;;;5048201;28;45559;-69
2022/08/03 03:01:45;;;;;;;1.10;1.10;;;27.30;39.80;;;;;;5065828;28;45229;-70
2022/08/03 03:04:12;;;;;;;1.10;1.00;;;27.30;39.30;;;;;;5065904;28;45261;-69
2022/08/03 03:06:39;;;;;;;1.00;1.00;;;27.30;39.40;;;;;;5063502;28;45281;-69
2022/08/03 03:09:06;;;;;;;1.10;1.10;;;27.20;39.30;;;;;;5066572;28;45388;-69
2022/08/03 03:11:33;;;;;;;1.00;1.00;;;27.20;39.30;;;;;;5069996;28;45253;-69
2022/08/03 03:14:01;;;;;;;1.67;0.93;;;27.20;39.40;;;;;;5067642;28;45210;-69
2022/08/03 03:16:28;;;;;;;1.00;1.00;;;27.20;39.40;;;;;;5065970;28;45314;-69
2022/08/03 03:18:55;;;;;;;0.95;0.95;;;27.20;39.50;;;;;;5050980;28;45569;-69
2022/08/03 03:21:22;;;;;;;1.00;1.00;;;27.20;39.30;;;;;;5068960;28;48243;-69
2022/08/03 03:23:48;;;;;;;1.17;1.10;;;27.20;39.40;;;;;;5069236;28;45168;-69
2022/08/03 03:26:15;;;;;;;0.90;0.90;;;27.10;39.40;;;;;;5069268;28;45396;-69
2022/08/03 03:28:43;;;;;;;0.90;0.90;;;27.10;39.50;;;;;;5073034;28;45312;-69
2022/08/03 03:31:11;;;;;;;1.23;1.00;;;27.10;39.50;;;;;;5069125;28;45331;-69
2022/08/03 03:33:38;;;;;;;1.27;1.20;;;27.10;39.50;;;;;;5068531;28;45260;-69
2022/08/03 03:36:05;;;;;;;1.13;1.02;;;27.10;39.60;;;;;;5051299;28;45262;-69
2022/08/03 03:38:32;;;;;;;1.15;1.10;;;27.10;39.60;;;;;;5068979;28;45346;-70
2022/08/03 03:41:00;;;;;;;1.10;1.10;;;27.00;39.50;;;;;;5070579;28;45365;-69
2022/08/03 03:43:28;;;;;;;1.10;1.00;;;27.00;39.40;;;;;;5068549;28;45218;-69
2022/08/03 03:45:55;;;;;;;1.30;1.20;;;27.00;39.60;;;;;;5089638;28;45281;-69
2022/08/03 03:48:24;;;;;;;1.63;1.00;;;27.00;39.60;;;;;;5089504;28;45361;-69
2022/08/03 03:50:51;;;;;;;1.00;1.00;;;27.00;39.70;;;;;;5088750;28;45424;-69
2022/08/03 03:53:18;;;;;;;1.42;1.25;;;27.00;39.60;;;;;;5089077;28;45173;-69
2022/08/03 03:55:45;;;;;;;1.15;1.15;;;26.90;39.60;;;;;;5089047;28;45229;-69
2022/08/03 03:58:12;;;;;;;1.00;1.00;;;26.90;39.60;;;;;;5089262;28;45292;-69
2022/08/03 04:00:41;;;;;;;1.23;1.20;;;26.90;39.60;;;;;;5086200;28;46868;-69
2022/08/03 04:03:08;;;;;;;1.13;1.10;;;26.90;39.70;;;;;;5088595;28;45265;-69
2022/08/03 04:11:10;;;;;;;0.88;0.88;;;26.90;39.80;;;;;;5070594;28;45288;-69
2022/08/03 04:13:38;;;;;;;1.17;1.10;;;26.90;39.80;;;;;;5089878;27;45344;-69
2022/08/03 04:16:05;;;;;;;1.00;1.00;;;26.80;39.70;;;;;;5088742;28;45182;-69
2022/08/03 04:18:34;;;;;;;0.90;0.90;;;26.80;39.70;;;;;;5088831;28;45273;-69
2022/08/03 04:21:04;;;;;;;1.00;0.90;;;26.80;39.80;;;;;;5070241;28;45451;-69
2022/08/03 04:23:31;;;;;;;1.00;1.00;;;26.80;39.70;;;;;;5088561;28;45254;-69
2022/08/03 04:25:58;;;;;;;1.10;1.00;;;26.80;39.70;;;;;;5088754;28;45240;-69
2022/08/03 04:28:25;;;;;;;1.00;1.00;;;26.70;39.60;;;;;;5089139;27;45608;-69
2022/08/03 04:30:52;;;;;;;1.40;1.30;;;26.70;39.80;;;;;;5091164;27;47296;-69
2022/08/03 04:33:19;;;;;;;1.00;1.00;;;26.70;39.70;;;;;;5088665;28;45214;-69
2022/08/03 04:35:46;;;;;;;0.90;0.90;;;26.70;39.80;;;;;;5088396;28;45176;-69
2022/08/03 04:38:15;;;;;;;1.25;1.15;;;26.70;39.80;;;;;;5088598;28;45257;-69
2022/08/03 04:40:43;;;;;;;1.00;1.00;;;26.70;39.80;;;;;;5088105;28;46376;-69
2022/08/03 04:43:10;;;;;;;2.05;1.00;;;26.60;39.80;;;;;;5088150;28;45218;-69
2022/08/03 04:45:37;;;;;;;1.08;0.98;;;26.60;39.80;;;;;;5088530;28;45159;-69
2022/08/03 04:48:04;;;;;;;1.00;1.00;;;26.60;39.80;;;;;;5088497;28;45383;-70
2022/08/03 04:50:31;;;;;;;1.00;1.00;;;26.60;39.90;;;;;;5088030;28;45331;-69
2022/08/03 04:52:58;;;;;;;1.63;1.20;;;26.60;39.70;;;;;;5088539;28;45335;-69
2022/08/03 04:55:36;;;;;;;1.65;1.00;;;26.60;39.80;;;;;;5069910;28;45383;-69
2022/08/03 04:58:03;;;;;;;0.93;0.93;;;26.60;39.90;;;;;;5088346;28;45502;-70
2022/08/03 05:00:30;;;;;;;1.40;1.05;;;26.60;39.80;;;;;;5087954;28;46834;-69
2022/08/03 05:02:57;;;;;;;0.90;0.90;;;26.60;39.90;;;;;;5087945;28;45440;-69
2022/08/03 05:05:24;;;;;;;0.90;0.90;;;26.50;39.80;;;;;;5087548;28;45201;-69
2022/08/03 05:07:51;;;;;;;0.90;0.90;;;26.50;40.00;;;;;;5069819;28;45155;-69
2022/08/03 05:10:18;;;;;;;1.55;1.10;;;26.50;40.00;;;;;;5088222;28;45382;-69
2022/08/03 05:12:47;;;;;;;1.83;1.08;;;26.50;40.00;;;;;;5094005;27;45372;-69
2022/08/03 05:15:14;;;;;;;1.08;1.08;;;26.50;40.10;;;;;;5069514;28;45304;-69
2022/08/03 05:17:41;;;;;;;0.93;0.93;;;26.50;40.00;;;;;;5087030;28;45182;-70
2022/08/03 05:20:09;;;;;;;0.90;0.90;;;26.50;40.10;;;;;;5069452;28;45472;-69
2022/08/03 05:22:36;;;;;;;0.90;0.90;;;26.50;40.00;;;;;;5087606;28;45412;-69
2022/08/03 05:25:04;;;;;;;1.25;0.93;;;26.40;40.00;;;;;;5088069;28;45200;-69
2022/08/03 05:27:31;;;;;;;1.30;1.20;;;26.50;40.10;;;;;;5087472;28;45265;-69
2022/08/03 05:29:59;;;;;;;1.10;1.10;;;26.50;40.00;;;;;;5096353;27;45373;-69
2022/08/03 05:32:26;;;;;;;1.05;1.05;;;26.50;39.80;;;;;;5105284;27;45321;-69
2022/08/03 05:34:53;;;;;;;1.10;1.10;;;26.50;39.80;;;;;;5108317;27;45297;-69
2022/08/03 05:37:19;;;;;;;0.90;0.90;;;26.50;39.80;;;;;;5108224;27;45337;-69
2022/08/03 05:39:47;;;;;;;1.00;1.00;;;26.50;39.90;;;;;;5107046;27;45256;-69
2022/08/03 05:42:15;;;;;;;1.00;1.00;;;26.60;39.90;;;;;;5106329;27;45303;-69
2022/08/03 05:44:42;;;;;;;0.82;0.82;;;26.50;39.80;;;;;;5108006;27;45314;-69
2022/08/03 05:47:10;;;;;;;0.98;0.98;;;26.50;40.40;;;;;;5090299;27;45394;-69
2022/08/03 05:49:37;;;;;;;1.20;1.10;;;26.60;39.90;;;;;;5107688;27;46395;-69
2022/08/03 05:52:04;;;;;;;1.00;1.00;;;26.50;39.80;;;;;;5107474;27;45272;-69
2022/08/03 05:54:31;;;;;;;0.90;0.90;;;26.50;39.80;;;;;;5089440;27;45264;-69
2022/08/03 05:56:58;;;;;;;1.02;0.98;;;26.50;39.80;;;;;;5107874;27;45222;-70
2022/08/03 05:59:25;;;;;;;0.95;0.95;;;26.50;39.80;;;;;;5107812;27;45348;-69
2022/08/03 06:01:52;;;;;;;1.00;1.00;;;26.50;39.80;;;;;;5107449;27;45264;-69
2022/08/03 06:04:20;;;;;;;1.40;1.30;;;26.50;39.80;;;;;;5106994;27;45226;-69
2022/08/03 06:06:49;;;;;;;0.93;0.93;;;26.50;39.80;;;;;;5089834;27;45311;-69
2022/08/03 06:09:16;;;;;;;0.93;0.93;;;26.50;39.80;;;;;;5107423;27;45238;-69
2022/08/03 06:11:43;;;;;;;0.90;0.90;;;26.50;40.00;;;;;;5101206;27;45416;-69
2022/08/03 06:14:10;;;;;;;1.13;1.13;;;26.50;39.90;;;;;;5107171;27;45303;-70
2022/08/03 06:16:36;;;;;;;0.90;0.90;;;26.50;39.90;;;;;;5107793;27;45374;-69
2022/08/03 06:19:03;;;;;;;1.25;1.13;;;26.50;40.50;;;;;;5107513;27;45412;-69
2022/08/03 06:21:32;;;;;;;1.58;1.00;;;26.50;39.90;;;;;;5106802;27;45193;-69
2022/08/03 06:23:58;;;;;;;1.02;1.02;;;26.50;39.90;;;;;;5089457;27;45312;-69
2022/08/03 06:26:26;;;;;;;0.98;0.95;;;26.50;39.90;;;;;;5107501;27;45251;-70
2022/08/03 06:28:53;;;;;;;1.00;1.00;;;26.50;39.90;;;;;;5101969;27;45349;-69
2022/08/03 06:31:21;;;;;;;1.10;1.00;;;26.50;39.90;;;;;;5104311;27;45248;-69
2022/08/03 06:33:48;;;;;;;1.23;1.13;;;26.50;39.90;;;;;;5088893;27;45280;-70
2022/08/03 06:36:15;;;;;;;2.45;1.10;;;26.50;39.90;;;;;;5107390;27;45455;-69
2022/08/03 06:38:43;;;;;;;1.17;1.10;;;26.60;40.00;;;;;;5106873;27;46664;-70
2022/08/03 06:41:10;;;;;;;1.13;1.02;;;26.60;40.00;;;;;;5107135;27;45190;-70
2022/08/03 06:43:37;;;;;;;0.95;0.95;;;26.50;39.90;;;;;;5104399;27;45210;-69
2022/08/03 06:46:04;;;;;;;0.93;0.93;;;26.60;40.10;;;;;;5107381;27;45343;-70
2022/08/03 06:48:31;;;;;;;0.90;0.90;;;26.60;40.10;;;;;;5106784;27;46577;-69
2022/08/03 06:50:58;;;;;;;1.05;1.05;;;26.60;40.10;;;;;;5106354;27;45337;-70
2022/08/03 06:53:24;;;;;;;1.13;1.10;;;26.60;40.10;;;;;;5109469;27;45310;-70
2022/08/03 06:55:53;;;;;;;0.98;0.98;;;26.60;40.10;;;;;;5110520;27;45481;-69
2022/08/03 06:58:20;;;;;;;1.25;1.00;;;26.60;40.10;;;;;;5110393;27;47362;-70
2022/08/03 07:00:46;;;;;;;1.10;1.10;;;26.60;40.10;;;;;;5110469;27;45322;-70
2022/08/03 07:03:13;;;;;;;1.00;1.00;;;26.60;40.20;;;;;;5110635;27;45256;-69
2022/08/03 07:05:45;;;;;;;1.20;1.10;;;26.70;40.20;;;;;;5111065;27;45249;-70
2022/08/03 07:08:12;;;;;;;2.47;1.10;;;26.70;40.20;;;;;;5110167;27;45788;-70
2022/08/03 07:10:38;;;;;;;2.67;1.20;;;26.70;40.20;;;;;;5110621;27;45332;-69
2022/08/03 07:13:07;;;;;;;1.13;1.10;;;26.70;40.20;;;;;;5103668;27;45170;-70
2022/08/03 07:15:34;;;;;;;1.17;1.08;;;26.70;40.30;;;;;;5110599;27;45491;-69
2022/08/03 07:18:01;;;;;;;3.45;1.15;;;26.70;40.30;;;;;;5110108;27;46436;-69
2022/08/03 07:20:27;;;;;;;1.02;0.98;;;26.70;40.40;;;;;;5110166;27;45261;-69
2022/08/03 07:22:54;;;;;;;1.20;1.10;;;26.70;40.30;;;;;;5109966;27;45207;-69
2022/08/03 07:25:21;;;;;;;1.00;1.00;;;26.80;40.30;;;;;;5110107;27;45224;-69
2022/08/03 07:27:48;;;;;;;1.77;1.30;;;26.80;40.30;;;;;;5109797;27;45132;-69
2022/08/03 07:30:16;;;;;;;0.90;0.90;;;26.80;40.20;;;;;;5104373;27;45226;-69
2022/08/03 07:32:43;;;;;;;1.13;1.02;;;26.80;41.00;;;;;;5110000;27;45306;-69
2022/08/03 07:35:10;;;;;;;1.00;1.00;;;26.80;40.30;;;;;;5110056;27;45458;-70
2022/08/03 07:37:37;;;;;;;1.10;1.00;;;26.80;40.30;;;;;;5109352;27;46387;-69
2022/08/03 07:40:05;;;;;;;1.00;1.00;;;26.90;41.10;;;;;;5109188;27;45285;-69
2022/08/03 07:42:32;;;;;;;0.95;0.77;;;26.90;40.40;;;;;;5109747;27;45340;-69
2022/08/03 07:44:59;;;;;;;1.10;1.00;;;26.90;40.30;;;;;;5109868;27;45118;-69
2022/08/03 07:47:28;;;;;;;0.98;0.98;;;26.90;40.40;;;;;;5109466;27;45420;-69
2022/08/03 07:49:55;;;;;;;1.73;1.10;;;26.90;40.50;;;;;;5109382;27;45238;-69
2022/08/03 07:55:07;;;;;;;1.33;1.10;;;27.00;40.30;;;;;;5110021;27;45375;-69
2022/08/03 07:57:34;;;;;;;0.95;0.93;;;27.00;40.40;;;;;;5109282;27;46681;-69
2022/08/03 08:00:01;;;;;;;0.93;0.93;;;27.00;40.40;;;;;;5109356;27;45338;-69
2022/08/03 08:02:31;;;;;;;0.80;0.80;;;27.00;40.30;;;;;;5109542;27;45198;-69
2022/08/03 08:04:58;;;;;;;0.90;0.90;;;27.10;40.30;;;;;;5105776;27;45303;-69
2022/08/03 08:07:25;;;;;;;1.20;1.10;;;27.10;40.30;;;;;;5109205;27;46335;-69
2022/08/03 08:09:51;;;;;;;0.98;0.98;;;27.10;40.20;;;;;;5109398;27;45308;-69
2022/08/03 08:12:18;;;;;;;1.02;1.02;;;27.10;40.20;;;;;;5102685;27;45268;-69
2022/08/03 08:14:45;;;;;;;0.88;0.88;;;27.10;40.10;;;;;;5109525;27;45226;-69
2022/08/03 08:17:12;;;;;;;1.00;1.00;;;27.20;40.10;;;;;;5108941;27;46353;-69
2022/08/03 08:19:40;;;;;;;1.10;1.00;;;27.20;40.00;;;;;;5108961;27;45316;-69
2022/08/03 08:22:07;;;;;;;1.10;1.00;;;27.20;39.80;;;;;;5109228;27;45194;-69
2022/08/03 08:24:34;;;;;;;1.40;1.30;;;27.20;39.70;;;;;;5108114;27;45436;-69
2022/08/03 08:27:01;;;;;;;1.70;1.60;;;27.30;40.80;;;;;;5108306;27;45423;-69
2022/08/03 08:29:27;;;;;;;1.65;1.55;;;27.20;42.90;;;;;;5098261;27;45244;-69
2022/08/03 08:31:55;;;;;;;3.25;1.58;;;27.30;42.50;;;;;;5088159;28;45229;-69
2022/08/03 08:34:21;;;;;;;1.75;1.52;;;27.30;43.00;;;;;;5088436;28;45561;-69
2022/08/03 08:36:50;;;;;;;1.60;1.50;;;27.30;43.40;;;;;;5087957;28;47305;-69
2022/08/03 08:39:16;;;;;;;3.58;1.85;;;27.40;43.30;;;;;;5087587;28;45287;-69
2022/08/03 08:41:43;;;;;;;2.67;1.70;;;27.40;43.60;;;;;;5088064;28;45297;-69
2022/08/03 08:44:10;;;;;;;1.85;1.58;;;27.40;43.70;;;;;;5088193;28;45162;-69
2022/08/03 08:46:37;;;;;;;4.57;2.00;;;27.50;44.00;;;;;;5087307;28;46429;-69
2022/08/03 08:49:04;;;;;;;3.10;1.50;;;27.50;44.40;;;;;;5052763;28;45391;-69
2022/08/03 08:51:33;;;;;;;2.13;1.80;;;27.50;43.30;;;;;;5069706;28;45262;-69
2022/08/03 08:54:04;;;;;;;2.45;1.77;;;27.60;43.80;;;;;;5087593;28;45233;-69
2022/08/03 08:56:31;;;;;;;2.15;1.70;;;27.60;43.80;;;;;;5087397;28;47297;-70
2022/08/03 08:58:59;;;;;;;2.40;1.73;;;27.70;43.70;;;;;;5087655;28;45433;-69
2022/08/03 09:01:25;;;;;;;2.83;2.42;;;27.70;44.10;;;;;;5087567;28;45249;-70
2022/08/03 09:03:53;;;;;;;5.95;1.88;;;27.70;44.00;;;;;;5087686;28;45345;-69
2022/08/03 09:06:20;;;;;;;2.15;1.70;;;27.80;43.90;;;;;;5087414;28;47339;-69
2022/08/03 09:08:47;;;;;;;1.88;1.77;;;27.80;43.80;;;;;;5084699;28;45301;-69
2022/08/03 09:11:15;;;;;;;2.47;2.00;;;27.80;43.80;;;;;;5089218;27;45406;-70
2022/08/03 09:13:42;;;;;;;2.55;1.60;;;27.90;43.70;;;;;;5091817;27;45296;-69
2022/08/03 09:16:10;;;;;;;3.05;1.75;;;27.90;43.70;;;;;;5086866;27;46978;-69
2022/08/03 09:18:37;;;;;;;1.67;1.58;;;28.00;43.60;;;;;;5087381;28;45284;-69
2022/08/03 09:21:21;;;;;;;1.95;1.80;;;28.00;43.50;;;;;;5087247;28;45514;-70
2022/08/03 09:23:49;;;;;;;1.77;1.67;;;28.00;43.60;;;;;;5087392;28;45314;-70
2022/08/03 09:26:24;;;;;;;2.13;1.80;;;28.10;43.30;;;;;;5086838;28;46523;-69
2022/08/03 09:28:57;;;;;;;2.75;1.60;;;28.10;43.50;;;;;;5087073;27;45298;-70
2022/08/03 09:31:31;;;;;;;2.42;1.55;;;28.20;43.30;;;;;;5107674;27;45301;-70
2022/08/03 09:33:59;;;;;;;2.40;2.20;;;28.20;43.10;;;;;;5107685;27;45348;-70
2022/08/03 09:36:37;;;;;;;1.80;1.70;;;28.20;42.90;;;;;;5107205;27;46250;-69
2022/08/03 09:39:05;;;;;;;1.98;1.77;;;28.30;42.80;;;;;;5107179;27;45231;-69
2022/08/03 09:41:33;;;;;;;2.40;1.67;;;28.30;42.80;;;;;;5107913;27;45389;-69
2022/08/03 09:44:00;;;;;;;3.22;2.10;;;28.30;42.70;;;;;;5107654;27;45352;-70
2022/08/03 09:46:30;;;;;;;2.63;1.88;;;28.40;42.90;;;;;;5107322;27;46424;-69
2022/08/03 09:49:10;;;;;;;2.28;1.60;;;28.40;42.80;;;;;;5107390;27;45310;-69
2022/08/03 09:51:37;;;;;;;2.20;1.98;;;28.50;43.00;;;;;;5107098;27;45256;-70
2022/08/03 09:54:04;;;;;;;1.77;1.67;;;28.50;43.00;;;;;;5107512;27;45446;-70
2022/08/03 09:56:40;;;;;;;1.75;1.65;;;28.60;42.90;;;;;;5107576;27;46627;-69
2022/08/03 09:59:06;;;;;;;1.80;1.70;;;28.60;43.10;;;;;;5107136;27;45325;-70
2022/08/03 10:01:33;;;;;;;2.28;1.90;;;28.70;43.20;;;;;;5107430;27;45342;-69
2022/08/03 10:04:01;;;;;;;3.00;1.80;;;28.70;43.10;;;;;;5107169;27;45543;-69
2022/08/03 10:06:27;;;;;;;3.67;1.63;;;28.70;43.00;;;;;;5106835;27;46641;-69
2022/08/03 10:09:05;;;;;;;2.60;1.92;;;28.80;43.00;;;;;;5106935;27;45257;-69
2022/08/03 10:11:33;;;;;;;1.70;1.60;;;28.90;42.90;;;;;;5102273;27;45308;-70
2022/08/03 10:14:03;;;;;;;1.70;1.60;;;28.90;42.50;;;;;;5105578;27;45257;-69
2022/08/03 10:16:33;;;;;;;1.77;1.67;;;29.00;42.50;;;;;;5107215;27;47638;-70
2022/08/03 10:18:59;;;;;;;1.60;1.50;;;29.00;42.30;;;;;;5106941;27;45214;-70
2022/08/03 10:21:26;;;;;;;2.47;1.70;;;29.00;42.20;;;;;;5106918;27;45205;-70
2022/08/03 10:23:53;;;;;;;1.92;1.83;;;29.10;42.00;;;;;;5106948;27;45288;-70
2022/08/03 10:26:20;;;;;;;2.13;1.80;;;29.10;42.00;;;;;;5106193;27;45321;-70
2022/08/03 10:28:48;;;;;;;1.73;1.60;;;29.20;42.10;;;;;;5101614;27;45443;-70
2022/08/03 10:31:17;;;;;;;1.85;1.75;;;29.20;41.90;;;;;;5065981;28;45173;-70
2022/08/03 10:33:44;;;;;;;1.77;1.67;;;29.30;41.70;;;;;;5066143;28;45271;-70
2022/08/03 10:36:12;;;;;;;1.90;1.73;;;29.30;41.60;;;;;;5066071;28;45253;-70
2022/08/03 10:38:40;;;;;;;2.85;1.85;;;29.30;42.20;;;;;;5065757;28;45308;-70
2022/08/03 10:41:07;;;;;;;2.45;1.80;;;29.40;41.50;;;;;;5066159;28;45183;-70
2022/08/03 10:43:36;;;;;;;3.50;2.05;;;29.50;41.50;;;;;;5063338;28;45231;-70
2022/08/03 10:46:03;;;;;;;3.85;1.90;;;29.50;41.40;;;;;;5065942;28;47661;-70
2022/08/03 10:48:31;;;;;;;2.60;2.00;;;29.60;41.40;;;;;;5065704;28;45349;-70
2022/08/03 10:50:58;;;;;;;3.58;1.80;;;29.60;41.30;;;;;;5065959;28;45330;-70
2022/08/03 10:53:35;;;;;;;2.90;1.77;;;29.60;41.10;;;;;;5066094;28;45367;-70
2022/08/03 10:58:50;;;;;;;4.13;1.80;;;29.80;40.60;;;;;;5063015;28;45443;-70
2022/08/03 11:01:17;;;;;;;2.53;1.80;;;29.90;40.80;;;;;;5065876;28;45247;-71
2022/08/03 11:04:16;;;;;;;3.00;2.00;;;29.90;40.80;;;;;;5066297;28;45369;-71
2022/08/03 11:06:43;;;;;;;2.58;2.08;;;30.00;40.90;;;;;;5065776;28;45452;-71
2022/08/03 11:09:15;;;;;;;2.83;1.88;;;30.10;40.80;;;;;;5065763;28;45346;-71
2022/08/03 11:11:42;;;;;;;2.42;1.65;;;30.10;40.60;;;;;;5072190;27;45287;-71
2022/08/03 11:14:10;;;;;;;2.42;1.90;;;30.20;40.70;;;;;;5106965;27;45521;-73
2022/08/03 11:16:39;;;;;;;2.30;1.67;;;30.20;40.80;;;;;;5106264;27;47089;-71
2022/08/03 11:19:07;;;;;;;3.25;1.90;;;30.30;40.70;;;;;;5098430;27;45411;-71
2022/08/03 11:21:54;;;;;;;2.55;1.70;;;30.30;40.60;;;;;;5106499;27;45321;-71
2022/08/03 11:24:57;;;;;;;2.13;1.95;;;30.40;40.70;;;;;;5106794;27;45140;-71
2022/08/03 11:27:25;;;;;;;4.72;2.00;;;30.50;40.60;;;;;;5105984;27;45302;-71
2022/08/03 11:29:55;;;;;;;2.13;1.83;;;30.50;40.40;;;;;;5106336;27;45143;-71
2022/08/03 11:32:55;;;;;;;2.78;1.88;;;30.60;40.40;;;;;;5106547;27;45291;-72
2022/08/03 11:35:22;;;;;;;3.72;2.25;;;30.60;40.20;;;;;;5106326;27;45550;-71
2022/08/03 11:38:10;;;;;;;3.42;1.73;;;30.70;40.20;;;;;;5106392;27;45381;-71
2022/08/03 11:40:39;;;;;;;2.10;1.70;;;30.80;40.10;;;;;;5109408;27;45408;-71
2022/08/03 11:43:06;;;;;;;2.20;2.00;;;30.80;39.90;;;;;;5109774;27;45337;-71
2022/08/03 11:45:33;;;;;;;4.10;1.75;;;30.90;40.00;;;;;;5109940;27;45180;-71
2022/08/03 11:48:03;;;;;;;2.42;2.00;;;30.90;39.90;;;;;;5109581;27;46602;-71
2022/08/03 11:50:36;;;;;;;2.70;2.00;;;31.00;39.90;;;;;;5108432;27;45276;-71
2022/08/03 11:53:04;;;;;;;2.10;1.90;;;31.10;39.80;;;;;;5109594;27;45358;-71
2022/08/03 11:55:31;;;;;;;2.10;1.90;;;31.10;39.70;;;;;;5109521;27;45336;-71
2022/08/03 11:57:59;;;;;;;3.25;1.98;;;31.20;39.50;;;;;;5109333;27;45548;-71
2022/08/03 12:00:27;;;;;;;4.15;2.00;;;31.30;39.50;;;;;;5109308;27;45206;-71
2022/08/03 12:02:59;;;;;;;2.80;1.88;;;31.30;39.40;;;;;;5109506;27;45289;-71
2022/08/03 12:05:37;;;;;;;2.00;1.88;;;31.30;39.30;;;;;;5109581;27;45198;-71
2022/08/03 12:08:05;;;;;;;2.83;1.90;;;31.40;39.40;;;;;;5109163;27;46456;-71
2022/08/03 12:10:32;;;;;;;2.25;1.92;;;31.40;39.20;;;;;;5109256;27;45217;-71
2022/08/03 12:12:59;;;;;;;2.58;1.80;;;31.50;39.20;;;;;;5109315;27;45224;-71
2022/08/03 12:15:27;;;;;;;1.70;1.60;;;31.60;39.20;;;;;;5109404;27;45379;-71
2022/08/03 12:17:53;;;;;;;2.20;1.65;;;31.60;39.10;;;;;;5109058;27;45405;-71
2022/08/03 12:20:25;;;;;;;2.08;1.80;;;31.70;39.00;;;;;;5109006;27;45217;-71
2022/08/03 12:22:52;;;;;;;3.55;1.80;;;31.80;39.00;;;;;;5109292;27;45507;-70
2022/08/03 12:25:25;;;;;;;1.92;1.70;;;31.80;38.90;;;;;;5109070;27;45345;-71
2022/08/03 12:27:52;;;;;;;1.75;1.65;;;31.80;38.80;;;;;;5108726;27;45211;-71
2022/08/03 12:30:19;;;;;;;1.95;1.83;;;31.90;38.70;;;;;;5096833;27;45310;-72
2022/08/03 12:32:46;;;;;;;2.75;2.00;;;32.00;38.80;;;;;;5109185;27;45323;-71
2022/08/03 12:35:22;;;;;;;2.10;1.90;;;32.00;38.70;;;;;;5109257;27;45126;-71
2022/08/03 12:37:48;;;;;;;1.83;1.67;;;32.10;38.70;;;;;;5108824;27;47613;-71
2022/08/03 12:40:15;;;;;;;1.70;1.60;;;32.20;38.70;;;;;;5108075;27;46294;-71
2022/08/03 12:42:44;;;;;;;1.83;1.67;;;32.20;38.60;;;;;;5109046;27;45532;-71
2022/08/03 12:45:23;;;;;;;2.13;1.95;;;32.30;38.70;;;;;;5108997;27;45360;-71
2022/08/03 12:47:51;;;;;;;2.05;1.95;;;32.40;38.80;;;;;;5108635;27;45448;-70
2022/08/03 12:50:24;;;;;;;3.30;2.30;;;32.50;39.10;;;;;;5108071;27;45342;-70
2022/08/03 12:52:51;;;;;;;2.92;2.10;;;32.60;38.10;;;;;;5106126;27;45209;-70
2022/08/03 12:55:20;;;;;;;3.92;1.83;;;32.70;37.60;;;;;;5108782;27;45290;-70
2022/08/03 12:57:48;;;;;;;2.22;2.03;;;32.70;36.20;;;;;;5108391;27;46206;-71
2022/08/03 13:00:16;;;;;;;3.42;2.22;;;32.80;36.50;;;;;;5108436;27;45169;-70
2022/08/03 13:02:43;;;;;;;2.67;1.90;;;32.90;36.60;;;;;;5108664;27;45305;-71
2022/08/03 13:05:10;;;;;;;2.13;2.03;;;33.00;36.00;;;;;;5108580;27;45384;-70